Time;durP1;ratioP1;P1;durP2;ratioP2;P2;SDS_P1;SDS_P2;PMS_P1;PMS_P2;Temp;Humidity;BMP_temperature;BMP_pressure;BME280_temperature;BME280_humidity;BME280_pressure;Samples;Min_cycle;Max_cycle;Signal;HPM_P1;HPM_P2
2022/08/07 00:00:10;;;;;;;7.35;5.38;;;15.60;99.60;;;;;;5044076;28;20045;-67
2022/08/07 00:02:36;;;;;;;7.47;5.30;;;15.50;99.70;;;;;;5034519;28;20068;-67
2022/08/07 00:05:02;;;;;;;8.30;5.22;;;15.50;99.90;;;;;;5029078;28;20053;-67
2022/08/07 00:07:28;;;;;;;7.05;5.07;;;15.40;99.90;;;;;;5035615;28;20484;-67
2022/08/07 00:09:53;;;;;;;7.93;5.90;;;15.40;99.90;;;;;;5046166;28;20119;-67
2022/08/07 00:12:19;;;;;;;6.72;4.78;;;15.30;99.90;;;;;;5036988;28;20052;-67
2022/08/07 00:14:45;;;;;;;7.13;5.18;;;15.40;99.90;;;;;;5038022;28;20081;-67
2022/08/07 00:17:10;;;;;;;8.18;5.30;;;15.30;99.90;;;;;;5039034;28;20595;-67
2022/08/07 00:19:36;;;;;;;7.97;5.70;;;15.30;99.90;;;;;;5043178;28;20178;-67
2022/08/07 00:22:01;;;;;;;8.43;5.80;;;15.30;99.90;;;;;;5034165;28;20139;-67
2022/08/07 00:24:27;;;;;;;7.10;5.45;;;15.20;99.90;;;;;;5026658;28;20068;-67
2022/08/07 00:26:52;;;;;;;9.18;5.47;;;15.10;99.90;;;;;;5029708;28;20064;-67
2022/08/07 00:29:24;;;;;;;7.80;5.88;;;15.10;99.90;;;;;;5042451;28;20356;-67
2022/08/07 00:31:51;;;;;;;7.20;5.40;;;15.10;99.90;;;;;;5039100;28;20041;-67
2022/08/07 00:34:16;;;;;;;7.38;5.20;;;15.10;99.90;;;;;;5043030;28;20033;-67
2022/08/07 00:36:42;;;;;;;7.57;5.90;;;15.00;99.90;;;;;;5038322;28;20033;-67
2022/08/07 00:39:08;;;;;;;8.65;5.93;;;15.00;99.90;;;;;;5043308;28;20105;-67
2022/08/07 00:41:34;;;;;;;9.93;6.20;;;15.00;99.90;;;;;;5037168;28;20144;-67
2022/08/07 00:43:59;;;;;;;8.70;6.38;;;15.00;99.90;;;;;;5042671;28;20195;-67
2022/08/07 00:46:25;;;;;;;8.98;6.78;;;14.90;99.90;;;;;;5040125;28;20053;-67
2022/08/07 00:48:50;;;;;;;7.72;5.78;;;14.90;99.90;;;;;;5036635;28;20045;-67
2022/08/07 00:51:16;;;;;;;9.35;6.63;;;14.90;99.90;;;;;;5041531;28;20078;-67
2022/08/07 00:53:42;;;;;;;10.65;6.40;;;14.80;99.90;;;;;;5040750;28;20047;-67
2022/08/07 00:56:10;;;;;;;8.68;6.63;;;14.80;99.90;;;;;;5042359;28;20102;-67
2022/08/07 00:58:36;;;;;;;10.00;7.05;;;14.80;99.90;;;;;;5043949;28;20113;-67
2022/08/07 01:01:01;;;;;;;9.55;6.85;;;14.70;99.90;;;;;;5043945;28;20120;-67
2022/08/07 01:03:27;;;;;;;8.80;6.70;;;14.70;99.90;;;;;;5023870;28;20573;-67
2022/08/07 01:05:54;;;;;;;8.93;6.47;;;14.70;99.90;;;;;;5041515;28;20149;-67
2022/08/07 01:08:21;;;;;;;9.10;6.82;;;14.70;99.90;;;;;;5038820;28;20349;-67
2022/08/07 01:10:46;;;;;;;9.02;6.28;;;14.70;99.90;;;;;;5043906;28;20068;-67
2022/08/07 01:13:12;;;;;;;9.85;6.85;;;14.60;99.90;;;;;;5040905;28;20076;-67
2022/08/07 01:15:39;;;;;;;8.88;6.20;;;14.60;99.90;;;;;;5041690;28;20125;-67
2022/08/07 01:18:05;;;;;;;8.52;6.47;;;14.60;99.90;;;;;;5039405;28;20037;-67
2022/08/07 01:20:41;;;;;;;9.70;6.43;;;14.50;99.90;;;;;;5038111;28;20119;-67
2022/08/07 01:23:07;;;;;;;9.45;6.40;;;14.50;99.90;;;;;;5040360;28;20045;-67
2022/08/07 01:25:33;;;;;;;8.70;6.80;;;14.50;99.90;;;;;;5039434;28;20056;-67
2022/08/07 01:27:59;;;;;;;8.15;5.75;;;14.50;99.90;;;;;;5032444;28;20042;-67
2022/08/07 01:30:26;;;;;;;7.78;5.85;;;14.50;99.90;;;;;;5034947;28;20042;-67
2022/08/07 01:32:51;;;;;;;8.68;6.22;;;14.50;99.90;;;;;;5041993;28;20052;-67
2022/08/07 01:35:17;;;;;;;7.60;6.03;;;14.50;99.90;;;;;;5038938;28;20041;-67
2022/08/07 01:37:43;;;;;;;7.93;5.57;;;14.40;99.90;;;;;;5045361;28;20041;-67
2022/08/07 01:40:09;;;;;;;9.18;6.57;;;14.40;99.90;;;;;;5049301;28;20174;-67
2022/08/07 01:42:35;;;;;;;7.80;5.90;;;14.40;99.90;;;;;;5037677;28;20221;-67
2022/08/07 01:45:03;;;;;;;7.90;5.85;;;14.30;99.90;;;;;;5050417;28;20112;-67
2022/08/07 01:47:28;;;;;;;8.95;5.75;;;14.30;99.90;;;;;;5039290;28;20056;-67
2022/08/07 01:49:54;;;;;;;8.43;5.50;;;14.30;99.90;;;;;;5055802;28;20045;-67
2022/08/07 01:52:24;;;;;;;8.07;5.55;;;14.30;99.90;;;;;;5039227;28;20088;-67
2022/08/07 01:54:53;;;;;;;8.32;5.97;;;14.30;99.90;;;;;;5042466;28;20048;-67
2022/08/07 01:57:27;;;;;;;7.40;5.35;;;14.30;99.90;;;;;;5044729;28;20080;-67
2022/08/07 02:00:08;;;;;;;7.82;5.38;;;14.20;99.90;;;;;;5036764;28;20049;-67
2022/08/07 02:02:44;;;;;;;8.07;5.55;;;14.20;99.90;;;;;;5040335;28;20064;-67
2022/08/07 02:05:33;;;;;;;10.75;6.30;;;14.10;99.90;;;;;;5039019;28;20714;-67
2022/08/07 02:08:04;;;;;;;9.90;5.47;;;14.10;99.90;;;;;;5044564;28;20029;-67
2022/08/07 02:10:32;;;;;;;7.72;5.68;;;14.10;99.90;;;;;;5037390;28;20098;-67
2022/08/07 02:13:01;;;;;;;10.25;6.97;;;14.10;99.90;;;;;;5044889;28;20468;-67
2022/08/07 02:15:28;;;;;;;10.55;6.97;;;14.00;99.90;;;;;;5043003;28;20105;-67
2022/08/07 02:17:54;;;;;;;9.55;6.60;;;14.00;99.90;;;;;;5039056;28;20503;-67
2022/08/07 02:20:22;;;;;;;10.15;6.85;;;14.00;99.90;;;;;;5042369;28;20152;-67
2022/08/07 02:22:48;;;;;;;10.80;6.93;;;13.90;99.90;;;;;;5043314;28;20432;-67
2022/08/07 02:25:17;;;;;;;9.60;6.78;;;13.90;99.90;;;;;;5039726;28;20081;-67
2022/08/07 02:27:44;;;;;;;11.32;7.05;;;13.90;99.90;;;;;;5039511;28;20040;-67
2022/08/07 02:30:11;;;;;;;10.77;7.28;;;13.80;99.90;;;;;;5040449;28;20741;-67
2022/08/07 02:32:37;;;;;;;8.88;6.57;;;13.80;99.90;;;;;;5044810;28;20050;-67
2022/08/07 02:35:07;;;;;;;9.73;6.75;;;13.80;99.90;;;;;;5037286;28;20099;-67
2022/08/07 02:37:35;;;;;;;9.75;6.53;;;13.80;99.90;;;;;;5038973;28;20128;-67
2022/08/07 02:40:03;;;;;;;8.60;6.20;;;13.80;99.90;;;;;;5045570;28;20089;-67
2022/08/07 02:42:31;;;;;;;9.48;6.57;;;13.80;99.90;;;;;;5044420;28;20037;-67
2022/08/07 02:44:58;;;;;;;10.30;7.22;;;13.80;99.90;;;;;;5043500;28;20073;-67
2022/08/07 02:47:24;;;;;;;9.57;6.93;;;13.80;99.90;;;;;;5036842;28;20041;-67
2022/08/07 02:49:50;;;;;;;9.65;7.13;;;13.70;99.90;;;;;;5032638;28;20036;-67
2022/08/07 02:52:31;;;;;;;9.93;6.65;;;13.70;99.90;;;;;;5035329;28;20037;-67
2022/08/07 02:55:01;;;;;;;10.52;7.38;;;13.70;99.90;;;;;;5035046;28;20102;-67
2022/08/07 02:57:28;;;;;;;10.57;6.55;;;13.70;99.90;;;;;;5032523;28;20461;-67
2022/08/07 02:59:56;;;;;;;11.93;7.10;;;13.60;99.90;;;;;;5041823;28;20055;-67
2022/08/07 03:02:22;;;;;;;11.63;7.50;;;13.60;99.90;;;;;;5043568;28;20057;-67
2022/08/07 03:04:50;;;;;;;10.02;7.03;;;13.60;99.90;;;;;;5037779;28;20110;-67
2022/08/07 03:07:17;;;;;;;10.27;7.05;;;13.60;99.90;;;;;;5044185;28;20383;-67
2022/08/07 03:09:44;;;;;;;10.63;6.72;;;13.50;99.90;;;;;;5041470;28;20076;-67
2022/08/07 03:12:10;;;;;;;9.80;6.65;;;13.50;99.90;;;;;;5036684;28;20548;-67
2022/08/07 03:14:38;;;;;;;11.93;6.80;;;13.50;99.90;;;;;;5043972;28;20128;-67
2022/08/07 03:17:04;;;;;;;9.77;6.82;;;13.40;99.90;;;;;;5039390;28;20041;-67
2022/08/07 03:19:31;;;;;;;9.35;6.38;;;13.40;99.90;;;;;;5044608;28;20045;-67
2022/08/07 03:21:57;;;;;;;9.32;6.10;;;13.40;99.90;;;;;;5038181;28;20164;-67
2022/08/07 03:24:23;;;;;;;10.38;5.82;;;13.40;99.90;;;;;;5045691;28;20063;-67
2022/08/07 03:26:50;;;;;;;8.10;5.45;;;13.30;99.90;;;;;;5040605;28;20049;-67
2022/08/07 03:29:17;;;;;;;9.45;5.90;;;13.40;99.90;;;;;;5043664;28;20044;-67
2022/08/07 03:31:45;;;;;;;9.20;6.57;;;13.30;99.90;;;;;;5043104;28;20555;-67
2022/08/07 03:34:13;;;;;;;8.93;6.07;;;13.30;99.90;;;;;;5040583;28;20042;-67
2022/08/07 03:36:39;;;;;;;7.75;5.80;;;13.20;99.90;;;;;;5021860;28;20109;-67
2022/08/07 03:39:10;;;;;;;7.97;5.75;;;13.20;99.90;;;;;;5041821;28;20061;-67
2022/08/07 03:41:36;;;;;;;8.57;5.43;;;13.20;99.90;;;;;;5038551;28;20434;-67
2022/08/07 03:44:02;;;;;;;8.82;6.20;;;13.10;99.90;;;;;;5046388;28;20495;-67
2022/08/07 03:46:30;;;;;;;8.52;5.57;;;13.10;99.90;;;;;;5042927;28;20122;-67
2022/08/07 03:48:55;;;;;;;7.03;4.70;;;13.10;99.90;;;;;;5044975;28;20419;-67
2022/08/07 03:51:22;;;;;;;7.15;4.78;;;13.10;99.90;;;;;;5039804;28;20103;-67
2022/08/07 03:53:48;;;;;;;7.28;4.78;;;13.10;99.90;;;;;;5041815;28;20045;-67
2022/08/07 03:56:19;;;;;;;7.63;5.18;;;13.10;99.90;;;;;;5041813;28;20044;-67
2022/08/07 03:58:45;;;;;;;7.63;4.78;;;13.10;99.90;;;;;;5040622;28;20081;-67
2022/08/07 04:01:13;;;;;;;6.85;4.82;;;13.10;99.90;;;;;;5037215;28;20068;-67
2022/08/07 04:03:39;;;;;;;7.03;4.32;;;13.10;99.90;;;;;;5036270;28;20545;-67
2022/08/07 04:06:09;;;;;;;7.93;4.68;;;13.10;99.90;;;;;;5043771;28;20056;-67
2022/08/07 04:08:35;;;;;;;7.28;4.55;;;13.10;99.90;;;;;;5041112;28;20033;-67
2022/08/07 04:11:01;;;;;;;6.90;4.32;;;13.10;99.90;;;;;;5042007;28;20518;-67
2022/08/07 04:13:27;;;;;;;8.20;4.90;;;13.10;99.90;;;;;;5034608;28;20037;-67
2022/08/07 04:15:53;;;;;;;7.32;4.95;;;13.00;99.90;;;;;;5033779;28;20063;-67
2022/08/07 04:18:19;;;;;;;7.47;4.80;;;13.00;99.90;;;;;;5039212;28;20048;-67
2022/08/07 04:20:45;;;;;;;7.35;4.22;;;13.00;99.90;;;;;;5035068;28;20045;-67
2022/08/07 04:23:12;;;;;;;9.77;4.47;;;13.00;99.90;;;;;;5037802;28;20258;-67
2022/08/07 04:25:39;;;;;;;5.90;4.05;;;12.90;99.90;;;;;;5042122;28;20037;-67
2022/08/07 04:28:06;;;;;;;5.65;4.03;;;12.90;99.90;;;;;;5041167;28;20085;-67
2022/08/07 04:30:33;;;;;;;5.95;3.95;;;12.90;99.90;;;;;;5032154;28;20033;-67
2022/08/07 04:33:00;;;;;;;7.38;4.57;;;12.90;99.90;;;;;;5044871;28;20052;-67
2022/08/07 04:35:25;;;;;;;6.20;4.40;;;12.90;99.90;;;;;;5033165;28;20049;-67
2022/08/07 04:37:51;;;;;;;5.75;3.55;;;12.90;99.90;;;;;;5041332;28;20048;-67
2022/08/07 04:40:17;;;;;;;6.18;4.40;;;13.00;99.90;;;;;;5044986;28;20499;-67
2022/08/07 04:42:42;;;;;;;7.13;3.80;;;13.00;99.90;;;;;;5042391;28;20079;-67
2022/08/07 04:45:10;;;;;;;5.55;3.35;;;13.00;99.90;;;;;;5041482;28;20033;-67
2022/08/07 04:47:45;;;;;;;6.40;3.90;;;13.00;99.90;;;;;;5036419;28;20053;-67
2022/08/07 04:50:30;;;;;;;5.97;3.90;;;13.10;99.90;;;;;;5031373;28;20861;-67
2022/08/07 04:53:03;;;;;;;;;;;13.10;99.90;;;;;;5038848;28;20046;-67
2022/08/07 04:55:54;;;;;;;8.35;5.00;;;13.10;99.90;;;;;;5040028;28;19931;-67
2022/08/07 04:58:45;;;;;;;6.97;4.70;;;13.10;99.90;;;;;;5033414;28;20469;-67
2022/08/07 05:01:19;;;;;;;7.20;4.65;;;13.20;99.90;;;;;;5041668;28;20468;-67
2022/08/07 05:04:12;;;;;;;6.90;4.20;;;13.30;99.90;;;;;;5040893;28;20337;-67
2022/08/07 05:06:57;;;;;;;7.40;4.90;;;13.40;99.90;;;;;;5039234;28;20429;-67
2022/08/07 05:09:34;;;;;;;6.38;4.47;;;13.40;99.90;;;;;;5036529;28;20481;-67
2022/08/07 05:12:03;;;;;;;8.85;5.50;;;13.50;99.90;;;;;;5034650;28;20073;-67
2022/08/07 05:14:42;;;;;;;8.50;5.18;;;13.50;99.90;;;;;;5042000;28;20155;-67
2022/08/07 05:17:12;;;;;;;7.30;5.40;;;13.60;99.90;;;;;;5046590;28;20056;-67
2022/08/07 05:19:43;;;;;;;7.88;5.20;;;13.70;99.90;;;;;;5043152;28;20048;-67
2022/08/07 05:22:10;;;;;;;8.20;5.28;;;13.70;99.90;;;;;;5041421;28;20092;-67
2022/08/07 05:24:38;;;;;;;8.63;5.20;;;13.80;99.90;;;;;;5046592;28;20041;-67
2022/08/07 05:27:07;;;;;;;7.57;5.60;;;14.00;99.90;;;;;;5042505;28;20040;-67
2022/08/07 05:29:37;;;;;;;8.52;5.75;;;14.10;99.90;;;;;;5046403;28;20037;-67
2022/08/07 05:32:06;;;;;;;8.80;6.18;;;14.30;99.90;;;;;;5042962;28;20053;-67
2022/08/07 05:34:33;;;;;;;9.57;6.18;;;14.30;99.90;;;;;;5041048;28;20053;-67
2022/08/07 05:36:59;;;;;;;10.25;6.70;;;14.50;99.90;;;;;;5040053;28;20045;-67
2022/08/07 05:39:25;;;;;;;8.88;6.72;;;14.60;99.90;;;;;;5028427;28;20342;-67
2022/08/07 05:41:51;;;;;;;8.35;6.18;;;14.70;99.90;;;;;;5044673;28;20046;-67
2022/08/07 05:44:18;;;;;;;9.35;6.53;;;14.80;99.90;;;;;;5042098;28;20487;-67
2022/08/07 05:46:47;;;;;;;10.70;7.30;;;14.90;99.90;;;;;;5039429;28;20867;-67
2022/08/07 05:49:13;;;;;;;10.93;7.70;;;15.00;99.90;;;;;;5047048;28;20052;-67
2022/08/07 05:51:41;;;;;;;13.30;8.43;;;15.10;99.90;;;;;;5046071;28;20033;-68
2022/08/07 05:54:07;;;;;;;12.88;9.10;;;15.30;99.90;;;;;;5046144;28;20064;-67
2022/08/07 05:56:35;;;;;;;12.32;8.93;;;15.40;99.90;;;;;;5041963;28;20053;-68
2022/08/07 05:59:03;;;;;;;14.95;9.18;;;15.50;99.90;;;;;;5048141;28;20401;-67
2022/08/07 06:01:29;;;;;;;12.60;8.60;;;15.60;99.90;;;;;;5043602;28;20041;-68
2022/08/07 06:03:57;;;;;;;14.75;9.40;;;15.80;99.90;;;;;;5047432;28;20033;-68
2022/08/07 06:06:23;;;;;;;12.85;9.65;;;15.90;99.90;;;;;;5035715;28;20148;-67
2022/08/07 06:08:49;;;;;;;12.35;9.38;;;16.00;99.90;;;;;;5048740;28;20032;-67
2022/08/07 06:11:15;;;;;;;12.27;9.02;;;16.20;99.90;;;;;;5045782;28;20429;-68
2022/08/07 06:13:41;;;;;;;12.30;9.32;;;16.30;99.90;;;;;;5046507;28;20509;-68
2022/08/07 06:16:08;;;;;;;11.60;8.93;;;16.40;99.90;;;;;;5043759;28;20037;-67
2022/08/07 06:18:34;;;;;;;11.15;7.50;;;16.60;99.90;;;;;;5016371;28;20045;-67
2022/08/07 06:21:00;;;;;;;7.65;5.70;;;16.70;99.90;;;;;;5039851;28;20107;-67
2022/08/07 06:23:27;;;;;;;9.60;6.47;;;16.90;99.90;;;;;;5050800;28;20123;-67
2022/08/07 06:25:53;;;;;;;9.05;6.72;;;16.90;99.90;;;;;;5035865;28;20152;-67
2022/08/07 06:28:19;;;;;;;14.93;8.82;;;17.20;99.90;;;;;;5042073;28;20159;-67
2022/08/07 06:30:44;;;;;;;9.95;6.60;;;17.40;99.90;;;;;;5044883;28;20080;-67
2022/08/07 06:33:10;;;;;;;9.90;7.32;;;17.50;99.90;;;;;;5033581;28;20075;-68
2022/08/07 06:35:36;;;;;;;10.70;7.97;;;17.60;99.90;;;;;;5041464;28;20361;-68
2022/08/07 06:38:06;;;;;;;11.43;8.45;;;17.80;99.90;;;;;;5040921;28;20044;-68
2022/08/07 06:40:41;;;;;;;10.65;8.30;;;17.90;99.90;;;;;;5048679;28;20056;-68
2022/08/07 06:43:09;;;;;;;12.25;9.50;;;18.00;99.90;;;;;;5040742;28;20037;-68
2022/08/07 06:45:35;;;;;;;11.45;8.73;;;18.10;99.90;;;;;;5041885;28;20039;-68
2022/08/07 06:48:01;;;;;;;13.25;8.73;;;18.30;99.90;;;;;;5038621;28;20037;-68
2022/08/07 06:50:28;;;;;;;10.90;8.32;;;18.30;99.90;;;;;;5041212;28;20435;-68
2022/08/07 06:52:55;;;;;;;11.35;8.75;;;18.40;99.90;;;;;;5043991;28;20167;-68
2022/08/07 06:55:30;;;;;;;12.77;9.77;;;18.50;99.90;;;;;;5042323;28;20147;-68
2022/08/07 06:58:01;;;;;;;10.77;7.60;;;18.60;99.90;;;;;;5043232;28;20065;-67
2022/08/07 07:00:32;;;;;;;11.35;7.55;;;18.70;99.90;;;;;;5045278;28;21094;-68
2022/08/07 07:02:59;;;;;;;10.25;7.90;;;18.70;99.90;;;;;;5044909;28;20362;-69
2022/08/07 07:05:24;;;;;;;10.75;8.18;;;18.90;99.90;;;;;;5043566;28;20125;-68
2022/08/07 07:07:50;;;;;;;11.18;8.27;;;18.90;99.90;;;;;;5044442;28;20048;-69
2022/08/07 07:10:28;;;;;;;12.50;8.50;;;19.00;99.90;;;;;;5045423;28;20033;-70
2022/08/07 07:13:12;;;;;;;9.77;7.78;;;19.10;99.90;;;;;;5034100;28;20041;-67
2022/08/07 07:15:43;;;;;;;9.40;6.50;;;19.10;99.90;;;;;;5045633;28;20045;-67
2022/08/07 07:18:26;;;;;;;8.93;6.50;;;19.10;99.90;;;;;;5039090;28;20059;-68
2022/08/07 07:21:00;;;;;;;7.88;5.50;;;19.20;99.90;;;;;;5037873;28;20048;-68
2022/08/07 07:23:28;;;;;;;9.20;6.38;;;19.30;99.80;;;;;;5039229;28;20557;-68
2022/08/07 07:25:57;;;;;;;7.45;5.90;;;19.40;99.90;;;;;;5047859;28;20529;-70
2022/08/07 07:28:25;;;;;;;8.27;5.75;;;19.60;99.90;;;;;;5030703;28;20046;-67
2022/08/07 07:30:56;;;;;;;7.90;5.35;;;19.70;99.90;;;;;;5045423;28;20129;-67
2022/08/07 07:33:24;;;;;;;7.60;4.97;;;19.80;99.90;;;;;;5043141;28;20045;-68
2022/08/07 07:35:52;;;;;;;6.53;4.80;;;20.00;99.60;;;;;;5044050;28;20040;-68
2022/08/07 07:38:21;;;;;;;6.40;4.82;;;19.90;98.70;;;;;;5036690;28;20071;-69
2022/08/07 07:40:47;;;;;;;7.93;4.68;;;20.10;98.60;;;;;;5040248;28;20053;-69
2022/08/07 07:43:15;;;;;;;6.20;3.83;;;20.20;98.40;;;;;;5044024;28;20483;-69
2022/08/07 07:45:43;;;;;;;6.22;3.63;;;20.20;97.90;;;;;;5045356;28;20049;-69
2022/08/07 07:48:11;;;;;;;6.60;4.45;;;20.30;97.40;;;;;;5034534;28;20048;-69
2022/08/07 07:50:39;;;;;;;5.57;3.90;;;20.40;97.10;;;;;;5034486;28;20045;-70
2022/08/07 07:53:08;;;;;;;7.38;4.00;;;20.30;96.00;;;;;;5042858;28;20543;-69
2022/08/07 07:55:34;;;;;;;6.07;3.92;;;20.40;96.00;;;;;;5044356;28;20049;-69
2022/08/07 07:58:01;;;;;;;5.80;4.10;;;20.50;96.40;;;;;;5039994;28;20038;-69
2022/08/07 08:00:27;;;;;;;6.90;3.70;;;20.60;96.30;;;;;;5035405;28;20129;-68
2022/08/07 08:03:00;;;;;;;6.93;3.75;;;20.60;95.70;;;;;;5033160;28;20052;-69
2022/08/07 08:05:26;;;;;;;6.35;3.83;;;20.70;95.50;;;;;;5031994;28;20053;-69
2022/08/07 08:07:52;;;;;;;6.50;2.90;;;20.80;95.30;;;;;;5028971;28;20047;-68
2022/08/07 08:10:20;;;;;;;4.85;2.70;;;20.80;95.00;;;;;;5043055;28;20471;-68
2022/08/07 08:12:47;;;;;;;4.75;2.30;;;20.90;94.90;;;;;;5046247;28;20154;-70
2022/08/07 08:15:13;;;;;;;4.68;1.80;;;20.90;94.90;;;;;;5034595;28;20098;-67
2022/08/07 08:17:40;;;;;;;5.07;2.20;;;21.00;94.00;;;;;;5041013;28;20046;-70
2022/08/07 08:20:08;;;;;;;4.80;2.30;;;20.90;94.30;;;;;;5035416;28;20048;-69
2022/08/07 08:28:23;;;;;;;5.57;2.65;;;21.10;94.20;;;;;;5041615;28;20049;-71
2022/08/07 08:30:54;;;;;;;5.82;2.60;;;21.20;93.90;;;;;;5041259;28;20034;-71
2022/08/07 08:33:23;;;;;;;5.03;2.80;;;21.20;92.80;;;;;;5038102;28;20041;-71
2022/08/07 08:35:51;;;;;;;4.85;2.47;;;21.20;92.90;;;;;;5040797;28;20044;-71
2022/08/07 08:38:19;;;;;;;6.35;2.72;;;21.20;93.10;;;;;;5036606;28;20034;-70
2022/08/07 08:41:03;;;;;;;5.07;2.83;;;21.30;93.10;;;;;;5034162;28;20052;-70
2022/08/07 08:43:29;;;;;;;5.00;2.70;;;21.40;92.60;;;;;;5039176;28;20454;-69
2022/08/07 08:46:17;;;;;;;4.57;2.20;;;21.30;92.00;;;;;;5043596;28;20040;-69
2022/08/07 08:48:46;;;;;;;5.13;2.50;;;21.50;92.70;;;;;;5045024;28;20057;-70
2022/08/07 08:51:31;;;;;;;5.32;3.10;;;21.70;92.70;;;;;;5041569;28;20115;-69
2022/08/07 08:54:21;;;;;;;5.80;3.05;;;21.80;92.20;;;;;;5041886;28;20082;-70
2022/08/07 08:56:49;;;;;;;4.95;2.63;;;21.90;91.20;;;;;;5042718;28;20045;-70
2022/08/07 08:59:40;;;;;;;5.38;2.80;;;21.80;91.80;;;;;;5040701;28;20053;-71
2022/08/07 09:02:38;;;;;;;5.68;2.78;;;22.00;91.50;;;;;;5042272;28;21390;-68
2022/08/07 09:05:19;;;;;;;4.55;2.88;;;22.10;91.60;;;;;;5020649;28;20054;-69
2022/08/07 09:07:50;;;;;;;5.53;3.13;;;22.20;91.20;;;;;;5042336;28;20054;-71
2022/08/07 09:10:28;;;;;;;13.10;5.85;;;22.40;90.90;;;;;;5038507;28;20038;-73
2022/08/07 09:13:18;;;;;;;6.47;3.40;;;22.50;91.20;;;;;;5034909;28;20136;-72
2022/08/07 09:16:01;;;;;;;5.28;2.55;;;22.60;90.60;;;;;;5039450;28;20045;-74
2022/08/07 09:18:54;;;;;;;12.70;6.10;;;22.50;90.10;;;;;;5031680;28;20472;-70
2022/08/07 09:21:23;;;;;;;5.22;2.40;;;22.40;90.60;;;;;;5033812;28;20048;-72
2022/08/07 09:24:12;;;;;;;4.63;2.63;;;22.30;90.10;;;;;;5039842;28;20182;-72
2022/08/07 09:27:18;;;;;;;4.82;2.13;;;22.00;87.60;;;;;;5031317;28;20053;-76
2022/08/07 09:30:16;;;;;;;6.70;2.92;;;21.90;88.00;;;;;;5034764;28;20045;-72
2022/08/07 09:33:14;;;;;;;5.03;2.42;;;22.00;88.70;;;;;;5020489;28;20049;-72
2022/08/07 09:36:01;;;;;;;6.60;3.38;;;22.10;89.00;;;;;;5035115;28;20053;-70
2022/08/07 09:38:33;;;;;;;4.68;2.22;;;22.20;88.90;;;;;;5045745;28;20045;-71
2022/08/07 09:41:02;;;;;;;4.90;2.50;;;22.20;87.80;;;;;;5042060;28;20160;-72
2022/08/07 09:43:43;;;;;;;4.20;2.30;;;22.30;87.30;;;;;;5040868;28;20072;-71
2022/08/07 09:46:41;;;;;;;4.95;2.30;;;22.30;86.20;;;;;;5036125;28;20049;-73
2022/08/07 09:49:44;;;;;;;4.47;2.35;;;22.40;86.40;;;;;;5051269;28;20048;-71
2022/08/07 09:52:22;;;;;;;5.32;2.55;;;22.50;86.90;;;;;;5032338;28;20037;-68
2022/08/07 09:55:19;;;;;;;7.18;3.72;;;22.50;86.20;;;;;;5038883;28;20042;-68
2022/08/07 09:58:22;;;;;;;3.88;2.00;;;22.50;85.30;;;;;;5040412;28;20049;-68
2022/08/07 10:00:48;;;;;;;6.20;2.65;;;22.50;83.30;;;;;;5037495;28;20140;-70
2022/08/07 10:03:29;;;;;;;11.57;4.90;;;22.60;84.20;;;;;;5038385;28;20705;-71
2022/08/07 10:06:08;;;;;;;5.88;2.55;;;22.70;84.80;;;;;;5036033;28;20099;-70
2022/08/07 10:08:39;;;;;;;11.13;5.60;;;22.80;84.50;;;;;;5035864;28;20399;-69
2022/08/07 10:11:16;;;;;;;3.90;1.80;;;22.90;84.10;;;;;;5032758;28;20129;-67
2022/08/07 10:14:23;;;;;;;6.00;2.65;;;22.90;83.10;;;;;;5039729;28;20104;-68
2022/08/07 10:17:07;;;;;;;4.57;2.05;;;22.90;79.50;;;;;;5035155;28;20053;-69
2022/08/07 10:19:44;;;;;;;3.47;2.10;;;22.80;81.70;;;;;;5042427;28;20120;-69
2022/08/07 10:22:31;;;;;;;4.00;2.25;;;22.80;81.20;;;;;;5039704;28;20435;-68
2022/08/07 10:25:03;;;;;;;3.78;2.15;;;22.90;80.80;;;;;;5047609;28;20056;-68
2022/08/07 10:28:03;;;;;;;4.25;2.17;;;22.90;81.10;;;;;;5042723;28;20040;-69
2022/08/07 10:30:48;;;;;;;4.20;1.90;;;22.90;79.00;;;;;;5042069;28;20426;-74
2022/08/07 10:33:14;;;;;;;;;;;22.90;80.10;;;;;;5038595;28;20053;-69
2022/08/07 10:36:19;;;;;;;3.60;1.73;;;22.90;78.80;;;;;;5042234;28;19932;-72
2022/08/07 10:38:53;;;;;;;4.13;1.73;;;22.90;79.30;;;;;;5056596;28;20052;-72
2022/08/07 10:41:24;;;;;;;7.25;3.10;;;22.90;78.10;;;;;;5038590;28;20037;-75
2022/08/07 10:44:10;;;;;;;7.00;2.55;;;23.00;78.70;;;;;;5039881;28;20078;-75
2022/08/07 10:47:04;;;;;;;4.03;2.10;;;23.10;78.20;;;;;;5036332;28;20664;-65
2022/08/07 10:49:53;;;;;;;3.65;1.85;;;23.10;77.90;;;;;;5030969;28;20125;-64
2022/08/07 10:52:32;;;;;;;2.80;1.70;;;23.20;77.90;;;;;;5037535;28;20436;-65
2022/08/07 10:55:13;;;;;;;7.22;3.10;;;23.40;77.00;;;;;;5035500;28;20068;-65
2022/08/07 10:58:03;;;;;;;3.97;1.90;;;23.40;78.80;;;;;;5043672;28;20144;-64
2022/08/07 11:00:42;;;;;;;4.82;2.40;;;23.60;74.30;;;;;;5035947;28;20440;-68
2022/08/07 11:03:15;;;;;;;4.88;2.00;;;23.50;75.80;;;;;;5033920;28;20049;-68
2022/08/07 11:06:00;;;;;;;3.60;1.92;;;23.40;76.30;;;;;;5038382;28;20053;-68
2022/08/07 11:08:30;;;;;;;;;;;23.50;75.80;;;;;;5043993;28;20037;-68
2022/08/07 11:11:02;;;;;;;4.00;2.00;;;23.40;75.80;;;;;;5045654;28;19932;-71
2022/08/07 11:13:40;;;;;;;4.13;2.00;;;23.50;76.10;;;;;;5037322;28;20118;-69
2022/08/07 11:16:18;;;;;;;4.05;2.13;;;23.50;74.70;;;;;;5038160;28;20060;-69
2022/08/07 11:18:49;;;;;;;5.25;2.10;;;23.40;74.90;;;;;;5033353;28;20519;-69
2022/08/07 11:21:36;;;;;;;4.30;2.30;;;23.50;75.20;;;;;;5040036;28;20130;-69
2022/08/07 11:24:30;;;;;;;5.50;2.45;;;23.50;74.40;;;;;;5036657;28;20049;-69
2022/08/07 11:27:10;;;;;;;3.70;2.08;;;23.50;74.70;;;;;;5038489;28;20048;-69
2022/08/07 11:30:03;;;;;;;4.05;2.13;;;23.50;74.60;;;;;;5044114;28;20041;-69
2022/08/07 11:32:46;;;;;;;3.90;2.22;;;23.60;74.50;;;;;;5042306;28;20041;-70
2022/08/07 11:35:18;;;;;;;3.78;2.03;;;23.70;74.40;;;;;;5038584;28;20049;-74
2022/08/07 11:38:30;;;;;;;3.33;1.75;;;23.80;73.20;;;;;;5037273;28;20068;-74
2022/08/07 11:41:10;;;;;;;3.97;2.00;;;23.80;72.10;;;;;;5016202;28;20056;-69
2022/08/07 11:44:01;;;;;;;3.40;1.90;;;23.90;73.10;;;;;;5044548;28;20067;-69
2022/08/07 11:46:41;;;;;;;4.35;2.10;;;23.90;71.40;;;;;;5052076;28;20052;-69
2022/08/07 11:49:43;;;;;;;3.60;2.00;;;24.00;71.90;;;;;;5037569;28;20099;-69
2022/08/07 11:52:41;;;;;;;3.42;1.95;;;24.00;73.20;;;;;;5043981;28;20059;-69
2022/08/07 11:55:36;;;;;;;4.43;2.30;;;24.10;74.20;;;;;;5029024;28;20049;-69
2022/08/07 11:58:19;;;;;;;3.75;1.90;;;24.10;70.90;;;;;;5041286;28;20388;-69
2022/08/07 12:01:00;;;;;;;4.18;1.92;;;24.10;71.80;;;;;;5046935;28;20087;-69
2022/08/07 12:03:37;;;;;;;4.72;2.20;;;24.10;72.40;;;;;;5030897;28;20118;-69
2022/08/07 12:06:15;;;;;;;3.95;2.10;;;24.10;72.80;;;;;;5026880;28;20124;-69
2022/08/07 12:08:52;;;;;;;4.45;2.25;;;24.20;71.90;;;;;;5029264;28;20136;-69
2022/08/07 12:11:38;;;;;;;4.78;2.25;;;24.20;71.60;;;;;;5029433;28;20037;-69
2022/08/07 12:14:20;;;;;;;4.82;2.20;;;24.20;72.00;;;;;;5036296;28;20207;-70
2022/08/07 12:17:00;;;;;;;4.80;1.98;;;24.20;71.80;;;;;;5034046;28;20072;-71
2022/08/07 12:19:34;;;;;;;3.50;1.88;;;24.10;69.80;;;;;;5036892;28;20096;-69
2022/08/07 12:22:14;;;;;;;4.80;2.00;;;24.30;71.10;;;;;;5039332;28;20052;-70
2022/08/07 12:27:55;;;;;;;4.22;1.73;;;24.50;71.80;;;;;;5035071;28;20053;-69
2022/08/07 12:30:25;;;;;;;3.80;2.00;;;24.70;71.50;;;;;;5041055;28;20174;-69
2022/08/07 12:33:04;;;;;;;4.45;2.00;;;24.70;70.60;;;;;;5033849;28;20045;-66
2022/08/07 12:35:32;;;;;;;8.63;2.15;;;24.80;70.70;;;;;;5050619;28;20086;-70
2022/08/07 12:37:58;;;;;;;4.53;2.30;;;24.50;71.20;;;;;;5048555;28;20523;-68
2022/08/07 12:40:27;;;;;;;4.00;1.90;;;24.20;71.90;;;;;;5037857;28;20155;-68
2022/08/07 12:42:57;;;;;;;3.67;2.10;;;24.00;73.00;;;;;;5037737;28;20052;-68
2022/08/07 12:45:29;;;;;;;3.85;2.20;;;23.80;73.30;;;;;;5043393;28;20046;-68
2022/08/07 12:48:15;;;;;;;3.85;2.17;;;23.70;74.70;;;;;;5041609;28;20167;-70
2022/08/07 12:50:53;;;;;;;4.28;2.40;;;23.80;75.10;;;;;;5045476;28;20184;-68
2022/08/07 12:53:44;;;;;;;4.63;2.40;;;23.80;75.80;;;;;;5040185;28;20033;-69
2022/08/07 12:56:15;;;;;;;5.13;2.40;;;23.80;75.10;;;;;;5046707;28;20169;-73
2022/08/07 12:58:45;;;;;;;4.45;2.38;;;24.00;75.00;;;;;;5039486;28;20495;-67
2022/08/07 13:01:44;;;;;;;3.58;2.13;;;23.90;75.00;;;;;;5039592;28;20041;-71
2022/08/07 13:04:28;;;;;;;3.65;2.22;;;23.90;75.10;;;;;;5044387;28;20078;-69
2022/08/07 13:07:20;;;;;;;4.75;2.47;;;24.00;76.20;;;;;;5041645;28;20052;-69
2022/08/07 13:10:00;;;;;;;3.95;2.15;;;24.20;76.60;;;;;;5041138;28;20071;-69
2022/08/07 13:12:36;;;;;;;4.22;2.30;;;24.30;75.50;;;;;;5036666;28;20037;-69
2022/08/07 13:15:41;;;;;;;5.25;2.30;;;24.40;75.10;;;;;;5051673;28;20057;-71
2022/08/07 13:18:31;;;;;;;4.68;2.17;;;24.60;74.70;;;;;;5025391;28;20058;-71
2022/08/07 13:21:45;;;;;;;3.92;2.00;;;24.60;73.10;;;;;;5039781;28;20107;-75
2022/08/07 13:24:42;;;;;;;4.80;2.10;;;24.70;73.10;;;;;;4996143;28;20422;-69